createdAt,value
2022-12-23T00:01:28.244Z,2.00
2022-12-23T00:03:59.059Z,1.53
2022-12-23T00:06:27.632Z,1.07
2022-12-23T00:08:58.419Z,0.77
2022-12-23T00:11:28.335Z,4.23
2022-12-23T00:14:20.695Z,2.17
2022-12-23T00:16:49.938Z,2.83
2022-12-23T00:19:18.473Z,4.53
2022-12-23T00:21:46.824Z,0.60
2022-12-23T00:24:16.168Z,2.40
2022-12-23T00:26:44.256Z,1.77
2022-12-23T00:29:12.088Z,1.20
2022-12-23T00:31:40.152Z,0.77
2022-12-23T00:34:07.843Z,2.10
2022-12-23T00:36:37.647Z,0.77
2022-12-23T00:39:23.991Z,2.00
2022-12-23T00:42:10.600Z,1.10
2022-12-23T00:44:38.576Z,0.50
2022-12-23T00:47:06.199Z,0.83
2022-12-23T00:49:42.419Z,1.07
2022-12-23T00:52:14.060Z,1.30
2022-12-23T00:54:42.735Z,1.40
2022-12-23T00:57:11.733Z,1.70
2022-12-23T00:59:39.903Z,0.90
2022-12-23T01:02:25.498Z,1.10
2022-12-23T01:05:11.375Z,1.00
2022-12-23T01:07:39.715Z,1.63
2022-12-23T01:10:09.803Z,2.67
2022-12-23T01:12:38.857Z,1.07
2022-12-23T01:15:08.734Z,0.60
2022-12-23T01:17:36.473Z,0.60
2022-12-23T01:20:05.152Z,1.83
2022-12-23T01:22:33.247Z,0.97
2022-12-23T01:25:02.140Z,1.20
2022-12-23T01:27:29.979Z,1.03
2022-12-23T01:29:59.544Z,1.03
2022-12-23T01:32:27.468Z,0.73
2022-12-23T01:34:55.966Z,1.50
2022-12-23T01:37:24.575Z,1.10
2022-12-23T01:39:52.338Z,1.13
2022-12-23T01:42:39.752Z,1.03
2022-12-23T01:45:15.400Z,2.00
2022-12-23T01:47:47.634Z,0.97
2022-12-23T01:50:21.400Z,1.10
2022-12-23T01:52:55.250Z,0.70
2022-12-23T01:55:26.827Z,0.90
2022-12-23T01:57:57.729Z,0.50
2022-12-23T02:00:44.555Z,0.80
2022-12-23T02:03:29.834Z,0.47
2022-12-23T02:06:20.963Z,0.50
2022-12-23T02:09:06.704Z,0.97
2022-12-23T02:11:46.166Z,0.60
2022-12-23T02:14:46.350Z,0.40
2022-12-23T02:17:25.955Z,0.40
2022-12-23T02:20:37.547Z,0.50
2022-12-23T02:23:40.735Z,1.07
2022-12-23T02:26:26.366Z,0.50
2022-12-23T02:29:12.403Z,0.93
2022-12-23T02:31:49.057Z,1.03
2022-12-23T02:34:20.067Z,0.77
2022-12-23T02:36:54.374Z,0.40
2022-12-23T02:39:33.513Z,0.40
2022-12-23T02:42:08.908Z,0.40
2022-12-23T02:44:45.099Z,1.43
2022-12-23T02:47:21.077Z,0.40
2022-12-23T02:49:53.599Z,0.63
2022-12-23T02:52:25.116Z,0.40
2022-12-23T02:54:57.454Z,0.53
2022-12-23T02:57:33.076Z,0.53
2022-12-23T03:00:03.343Z,0.90
2022-12-23T03:02:35.677Z,0.50
2022-12-23T03:05:03.585Z,0.40
2022-12-23T03:07:34.848Z,0.73
2022-12-23T03:10:09.686Z,0.73
2022-12-23T03:12:52.403Z,0.40
2022-12-23T03:15:33.616Z,1.17
2022-12-23T03:18:12.552Z,0.70
2022-12-23T03:20:45.467Z,0.50
2022-12-23T03:23:23.072Z,1.87
2022-12-23T03:26:00.944Z,0.90
2022-12-23T03:28:34.852Z,0.97
2022-12-23T03:31:07.409Z,0.77
2022-12-23T03:33:40.605Z,0.70
2022-12-23T03:36:13.997Z,1.37
2022-12-23T03:38:45.340Z,1.33
2022-12-23T03:41:17.991Z,0.80
2022-12-23T03:43:51.403Z,0.80
2022-12-23T03:46:25.018Z,0.60
2022-12-23T03:48:58.193Z,1.90
2022-12-23T03:51:31.125Z,0.77
2022-12-23T03:54:02.671Z,0.50
2022-12-23T03:56:35.625Z,0.50
2022-12-23T03:59:10.511Z,1.17
2022-12-23T04:01:47.061Z,0.70
2022-12-23T04:04:22.387Z,2.23
2022-12-23T04:06:53.039Z,0.60
2022-12-23T04:09:23.270Z,1.17
2022-12-23T04:11:51.899Z,0.70
2022-12-23T04:14:20.551Z,0.73
2022-12-23T04:16:51.610Z,0.60
2022-12-23T04:19:20.760Z,0.90
2022-12-23T04:21:48.882Z,0.40
2022-12-23T04:24:16.653Z,2.70
2022-12-23T04:26:45.192Z,1.33
2022-12-23T04:29:12.903Z,0.70
2022-12-23T04:31:40.568Z,0.60
2022-12-23T04:34:08.349Z,0.50
2022-12-23T04:36:37.781Z,1.20
2022-12-23T04:39:05.559Z,1.27
2022-12-23T04:41:33.552Z,0.80
2022-12-23T04:44:01.268Z,1.13
2022-12-23T04:46:29.028Z,0.50
2022-12-23T04:48:57.122Z,0.60
2022-12-23T04:51:24.882Z,0.67
2022-12-23T04:53:54.916Z,0.63
2022-12-23T04:56:23.008Z,0.80
2022-12-23T04:58:51.210Z,1.10
2022-12-23T05:01:19.698Z,1.90
2022-12-23T05:03:48.152Z,0.93
2022-12-23T05:06:15.963Z,1.93
2022-12-23T05:08:44.431Z,2.63
2022-12-23T05:11:13.915Z,2.23
2022-12-23T05:13:41.954Z,4.00
2022-12-23T05:16:10.027Z,0.97
2022-12-23T05:18:37.717Z,1.50
2022-12-23T05:21:07.016Z,1.23
2022-12-23T05:23:34.759Z,3.17
2022-12-23T05:26:02.867Z,0.97
2022-12-23T05:28:32.661Z,2.20
2022-12-23T05:31:01.996Z,1.13
2022-12-23T05:33:30.373Z,0.90
2022-12-23T05:35:58.978Z,1.43
2022-12-23T05:38:28.362Z,2.37
2022-12-23T05:40:56.048Z,2.30
2022-12-23T05:43:25.009Z,2.20
2022-12-23T05:45:54.655Z,1.60
2022-12-23T05:48:22.500Z,1.10
2022-12-23T05:50:51.132Z,2.03
2022-12-23T05:53:19.531Z,2.20
2022-12-23T05:55:47.893Z,1.50
2022-12-23T05:58:16.468Z,0.97
2022-12-23T06:00:44.476Z,0.80
2022-12-23T06:03:13.763Z,1.80
2022-12-23T06:05:44.179Z,0.83
2022-12-23T06:08:11.843Z,1.00
2022-12-23T06:10:39.454Z,0.87
2022-12-23T06:13:07.693Z,2.70
2022-12-23T06:15:36.090Z,2.90
2022-12-23T06:18:03.785Z,2.33
2022-12-23T06:20:32.739Z,2.00
2022-12-23T06:23:00.901Z,1.47
2022-12-23T06:25:29.091Z,1.20
2022-12-23T06:27:57.202Z,1.80
2022-12-23T06:30:24.998Z,1.20
2022-12-23T06:32:53.011Z,5.47
2022-12-23T06:35:21.051Z,2.83
2022-12-23T06:37:50.243Z,1.67
2022-12-23T06:40:18.593Z,2.30
2022-12-23T06:42:46.295Z,1.60
2022-12-23T06:45:14.891Z,1.17
2022-12-23T06:47:44.774Z,1.77
2022-12-23T06:50:13.287Z,1.70
2022-12-23T06:52:41.121Z,2.23
2022-12-23T06:55:10.851Z,1.87
2022-12-23T06:57:38.861Z,1.07
2022-12-23T07:00:08.090Z,2.37
2022-12-23T07:02:36.459Z,1.37
2022-12-23T07:05:04.322Z,3.77
2022-12-23T07:07:33.775Z,2.10
2022-12-23T07:10:01.403Z,1.90
2022-12-23T07:12:32.868Z,1.60
2022-12-23T07:15:00.789Z,1.83
2022-12-23T07:17:29.267Z,4.00
2022-12-23T07:19:57.063Z,3.37
2022-12-23T07:22:25.858Z,3.77
2022-12-23T07:24:54.424Z,4.53
2022-12-23T07:27:22.082Z,7.63
2022-12-23T07:29:52.357Z,7.77
2022-12-23T07:32:20.512Z,19.20
2022-12-23T07:34:48.131Z,13.37
2022-12-23T07:37:16.718Z,11.63
2022-12-23T07:39:44.640Z,9.50
2022-12-23T07:45:02.859Z,10.10
2022-12-23T07:47:31.148Z,10.10
2022-12-23T07:49:58.792Z,8.40
2022-12-23T07:52:26.871Z,7.40
2022-12-23T07:54:55.660Z,6.87
2022-12-23T07:57:24.299Z,7.63
2022-12-23T07:59:52.465Z,7.03
2022-12-23T08:02:25.090Z,5.43
2022-12-23T08:04:54.176Z,6.13
2022-12-23T08:07:22.654Z,5.10
2022-12-23T08:09:50.733Z,7.37
2022-12-23T08:12:18.440Z,7.83
2022-12-23T08:14:48.782Z,4.20
2022-12-23T08:17:16.508Z,5.83
2022-12-23T08:19:45.599Z,9.80
2022-12-23T08:22:14.368Z,5.60
2022-12-23T08:24:42.198Z,7.27
2022-12-23T08:27:10.848Z,8.10
2022-12-23T08:29:40.712Z,8.10
2022-12-23T08:32:08.487Z,9.70
2022-12-23T08:34:36.234Z,6.00
2022-12-23T08:37:05.331Z,4.67
2022-12-23T08:39:33.450Z,8.50
2022-12-23T08:42:01.320Z,4.40
2022-12-23T08:44:30.169Z,6.00
2022-12-23T08:46:58.989Z,5.83
2022-12-23T08:49:26.696Z,4.33
2022-12-23T08:51:54.969Z,4.40
2022-12-23T08:54:25.169Z,5.80
2022-12-23T08:56:53.659Z,5.10
2022-12-23T08:59:21.357Z,4.60
2022-12-23T09:01:49.513Z,5.73
2022-12-23T09:04:17.383Z,6.00
2022-12-23T09:06:46.873Z,5.87
2022-12-23T09:09:16.516Z,6.60
2022-12-23T09:11:45.589Z,9.53
2022-12-23T09:14:13.941Z,7.17
2022-12-23T09:16:41.743Z,8.47
2022-12-23T09:19:10.772Z,5.77
2022-12-23T09:21:40.425Z,4.80
2022-12-23T09:24:09.018Z,8.53
2022-12-23T09:26:36.669Z,6.30
2022-12-23T09:29:05.735Z,8.50
2022-12-23T09:31:37.082Z,7.03
2022-12-23T09:34:06.866Z,4.87
2022-12-23T09:36:35.146Z,4.67
2022-12-23T09:39:03.495Z,3.90
2022-12-23T09:41:43.307Z,3.97
2022-12-23T09:44:24.797Z,3.80
2022-12-23T09:46:57.915Z,4.60
2022-12-23T09:49:26.298Z,2.80
2022-12-23T09:52:00.209Z,2.97
2022-12-23T09:54:31.062Z,2.43
2022-12-23T09:57:01.436Z,6.37
2022-12-23T09:59:51.078Z,7.50
2022-12-23T10:02:24.914Z,3.97
2022-12-23T10:05:04.738Z,6.60
2022-12-23T10:07:38.445Z,5.67
2022-12-23T10:10:16.721Z,5.67
2022-12-23T10:12:48.567Z,6.07
2022-12-23T10:15:29.548Z,4.20
2022-12-23T10:18:01.951Z,4.57
2022-12-23T10:20:40.174Z,4.30
2022-12-23T10:23:16.228Z,8.73
2022-12-23T10:25:51.261Z,3.63
2022-12-23T10:28:19.700Z,3.90
2022-12-23T10:31:39.127Z,2.57
2022-12-23T10:33:59.534Z,6.30
2022-12-23T10:36:37.935Z,4.20
2022-12-23T10:39:15.829Z,5.00
2022-12-23T10:41:51.765Z,2.87
2022-12-23T10:44:31.967Z,1.87
2022-12-23T10:47:14.242Z,4.67
2022-12-23T10:49:54.029Z,1.50
2022-12-23T10:52:24.827Z,2.43
2022-12-23T10:54:53.012Z,1.27
2022-12-23T10:57:21.165Z,2.00
2022-12-23T10:59:49.259Z,4.20
2022-12-23T11:02:37.834Z,2.53
2022-12-23T11:05:13.551Z,2.97
2022-12-23T11:07:44.556Z,1.67
2022-12-23T11:10:18.659Z,2.77
2022-12-23T11:12:48.506Z,2.17
2022-12-23T11:15:29.863Z,3.00
2022-12-23T11:18:05.199Z,1.43
2022-12-23T11:20:34.504Z,2.70
2022-12-23T11:23:03.918Z,1.57
2022-12-23T11:25:35.479Z,4.40
2022-12-23T11:28:09.124Z,2.33
2022-12-23T11:30:55.195Z,2.13
2022-12-23T11:33:27.697Z,4.03
2022-12-23T11:36:04.518Z,5.07
2022-12-23T11:38:33.563Z,4.97
2022-12-23T11:41:01.686Z,4.20
2022-12-23T11:43:30.093Z,4.40
2022-12-23T11:46:25.273Z,5.30
2022-12-23T11:49:16.394Z,3.50
2022-12-23T11:51:45.313Z,5.07
2022-12-23T11:54:18.113Z,5.10
2022-12-23T11:56:50.742Z,3.73
2022-12-23T11:59:30.237Z,3.90
2022-12-23T12:02:00.313Z,4.30
2022-12-23T12:04:32.664Z,4.03
2022-12-23T12:07:01.758Z,4.40
2022-12-23T12:09:31.699Z,3.77
2022-12-23T12:12:06.142Z,4.93
2022-12-23T12:14:41.822Z,4.00
2022-12-23T12:17:19.152Z,3.53
2022-12-23T12:19:58.307Z,2.43
2022-12-23T12:22:36.025Z,2.67
2022-12-23T12:25:19.016Z,2.53
2022-12-23T12:27:53.042Z,3.17
2022-12-23T12:30:22.187Z,3.17
2022-12-23T12:32:56.188Z,3.50
2022-12-23T12:35:33.064Z,2.97
2022-12-23T12:38:08.030Z,5.50
2022-12-23T12:40:42.300Z,4.70
2022-12-23T12:43:21.580Z,3.50
2022-12-23T12:45:53.134Z,4.40
2022-12-23T12:48:33.179Z,5.30
2022-12-23T12:51:10.214Z,3.53
2022-12-23T12:53:41.282Z,3.60
2022-12-23T12:56:20.595Z,6.60
2022-12-23T12:58:50.807Z,4.40
2022-12-23T13:01:33.280Z,3.27
2022-12-23T13:04:29.817Z,4.23
2022-12-23T13:07:07.775Z,5.47
2022-12-23T13:09:50.601Z,3.30
2022-12-23T13:12:24.444Z,3.00
2022-12-23T13:15:03.801Z,4.17
2022-12-23T13:17:38.088Z,3.40
2022-12-23T13:20:18.468Z,4.63
2022-12-23T13:22:55.655Z,4.13
2022-12-23T13:25:28.282Z,4.40
2022-12-23T13:27:59.230Z,4.10
2022-12-23T13:30:33.496Z,6.30
2022-12-23T13:33:11.151Z,4.40
2022-12-23T13:36:04.701Z,3.83
2022-12-23T13:38:46.912Z,3.63
2022-12-23T13:41:24.125Z,8.67
2022-12-23T13:43:57.163Z,4.30
2022-12-23T13:46:40.712Z,8.70
2022-12-23T13:49:17.291Z,6.00
2022-12-23T13:52:12.508Z,6.57
2022-12-23T13:54:53.257Z,5.57
2022-12-23T13:57:33.285Z,6.07
2022-12-23T14:00:06.217Z,5.33
2022-12-23T14:02:43.733Z,8.90
2022-12-23T14:05:33.196Z,9.07
2022-12-23T14:08:03.529Z,6.57
2022-12-23T14:10:34.033Z,4.73
2022-12-23T14:13:05.491Z,5.20
2022-12-23T14:16:15.892Z,5.90
2022-12-23T14:18:57.297Z,5.00
2022-12-23T14:21:37.089Z,5.77
2022-12-23T14:24:26.594Z,6.00
2022-12-23T14:27:18.061Z,4.37
2022-12-23T14:30:04.926Z,2.63
2022-12-23T14:32:44.585Z,2.00
2022-12-23T14:35:49.311Z,1.93
2022-12-23T14:38:29.228Z,2.17
2022-12-23T14:41:18.994Z,1.60
2022-12-23T14:43:57.354Z,1.33
2022-12-23T14:46:59.396Z,1.50
2022-12-23T14:49:42.858Z,1.63
2022-12-23T14:52:46.097Z,2.10
2022-12-23T14:55:43.777Z,1.00
2022-12-23T14:58:25.812Z,0.73
2022-12-23T15:01:01.753Z,1.10
2022-12-23T15:03:33.748Z,1.63
2022-12-23T15:06:06.021Z,1.70
2022-12-23T15:08:38.684Z,0.80
2022-12-23T15:11:08.584Z,1.27
2022-12-23T15:13:38.131Z,1.43
2022-12-23T15:16:07.956Z,1.10
2022-12-23T15:18:35.699Z,4.63
2022-12-23T15:21:11.053Z,3.77
2022-12-23T15:23:38.638Z,1.20
2022-12-23T15:26:06.983Z,2.57
2022-12-23T15:28:37.848Z,1.47
2022-12-23T15:31:15.868Z,0.80
2022-12-23T15:34:04.870Z,1.53
2022-12-23T15:36:36.950Z,0.80
2022-12-23T15:39:10.625Z,1.10
2022-12-23T15:41:46.460Z,0.93
2022-12-23T15:44:16.678Z,1.40
2022-12-23T15:46:45.791Z,2.07
2022-12-23T15:49:14.092Z,0.90
2022-12-23T15:54:37.119Z,1.60
2022-12-23T15:57:06.283Z,5.23
2022-12-23T15:59:37.920Z,1.23
2022-12-23T16:02:49.618Z,1.10
2022-12-23T16:05:03.741Z,0.90
2022-12-23T16:07:37.331Z,1.00
2022-12-23T16:10:12.986Z,0.97
2022-12-23T16:12:42.202Z,1.80
2022-12-23T16:15:21.701Z,1.03
2022-12-23T16:17:50.977Z,0.97
2022-12-23T16:20:24.590Z,1.90
2022-12-23T16:22:55.037Z,0.70
2022-12-23T16:25:25.549Z,1.93
2022-12-23T16:27:58.446Z,1.30
2022-12-23T16:30:32.035Z,4.33
2022-12-23T16:33:03.659Z,0.97
2022-12-23T16:35:37.565Z,0.80
2022-12-23T16:38:14.821Z,2.20
2022-12-23T16:40:44.127Z,1.00
2022-12-23T16:43:12.193Z,1.50
2022-12-23T16:45:40.260Z,3.80
2022-12-23T16:48:19.678Z,4.83
2022-12-23T16:50:47.644Z,1.27
2022-12-23T16:53:15.640Z,0.90
2022-12-23T16:55:51.125Z,1.13
2022-12-23T16:58:23.398Z,3.67
2022-12-23T17:00:52.329Z,1.57
2022-12-23T17:03:22.148Z,1.90
2022-12-23T17:05:49.913Z,1.63
2022-12-23T17:08:18.186Z,1.30
2022-12-23T17:10:46.219Z,0.90
2022-12-23T17:13:17.145Z,3.70
2022-12-23T17:15:45.558Z,1.00
2022-12-23T17:18:14.747Z,1.43
2022-12-23T17:20:45.993Z,1.73
2022-12-23T17:23:25.514Z,1.00
2022-12-23T17:25:53.798Z,2.57
2022-12-23T17:28:22.286Z,1.03
2022-12-23T17:30:55.023Z,1.23
2022-12-23T17:33:27.834Z,1.67
2022-12-23T17:35:57.006Z,0.87
2022-12-23T17:38:24.974Z,0.97
2022-12-23T17:40:53.283Z,1.40
2022-12-23T17:43:23.644Z,0.80
2022-12-23T17:45:51.463Z,1.10
2022-12-23T17:48:23.280Z,0.93
2022-12-23T17:50:54.276Z,0.83
2022-12-23T17:53:24.571Z,1.77
2022-12-23T17:55:52.247Z,1.63
2022-12-23T17:58:20.854Z,3.03
2022-12-23T18:00:48.586Z,1.20
2022-12-23T18:03:23.501Z,0.70
2022-12-23T18:06:00.910Z,1.07
2022-12-23T18:08:30.993Z,0.97
2022-12-23T18:10:59.401Z,1.47
2022-12-23T18:13:27.730Z,1.53
2022-12-23T18:15:55.739Z,3.90
2022-12-23T18:18:31.200Z,0.60
2022-12-23T18:21:03.620Z,1.90
2022-12-23T18:23:34.493Z,1.73
2022-12-23T18:26:02.946Z,1.37
2022-12-23T18:28:30.695Z,2.70
2022-12-23T18:30:59.206Z,3.43
2022-12-23T18:33:29.328Z,2.73
2022-12-23T18:35:58.419Z,1.33
2022-12-23T18:38:26.214Z,0.97
2022-12-23T18:40:56.998Z,3.37
2022-12-23T18:43:26.528Z,1.70
2022-12-23T18:45:54.489Z,1.10
2022-12-23T18:48:22.495Z,3.67
2022-12-23T18:50:50.257Z,1.50
2022-12-23T18:53:24.710Z,1.77
2022-12-23T18:55:53.355Z,2.07
2022-12-23T18:58:23.279Z,1.93
2022-12-23T19:00:52.704Z,2.30
2022-12-23T19:03:24.230Z,2.50
2022-12-23T19:05:53.109Z,3.47
2022-12-23T19:08:26.727Z,1.77
2022-12-23T19:10:56.416Z,3.07
2022-12-23T19:13:25.754Z,1.97
2022-12-23T19:15:54.175Z,1.43
2022-12-23T19:18:23.014Z,1.10
2022-12-23T19:20:51.520Z,1.97
2022-12-23T19:23:19.494Z,2.83
2022-12-23T19:25:54.593Z,4.60
2022-12-23T19:28:25.354Z,1.00
2022-12-23T19:30:53.411Z,1.37
2022-12-23T19:33:21.174Z,1.60
2022-12-23T19:35:49.201Z,3.57
2022-12-23T19:38:18.295Z,11.00
2022-12-23T19:40:46.525Z,6.50
2022-12-23T19:43:14.193Z,8.60
2022-12-23T19:45:43.592Z,5.40
2022-12-23T19:48:11.580Z,3.27
2022-12-23T19:50:39.278Z,9.87
2022-12-23T19:53:06.980Z,13.70
2022-12-23T19:55:35.033Z,9.73
2022-12-23T19:58:02.656Z,14.07
2022-12-23T20:00:30.347Z,10.90
2022-12-23T20:02:59.671Z,7.23
2022-12-23T20:05:27.730Z,8.70
2022-12-23T20:07:55.324Z,11.70
2022-12-23T20:10:23.348Z,15.67
2022-12-23T20:12:50.929Z,12.10
2022-12-23T20:15:19.019Z,3.33
2022-12-23T20:17:46.643Z,2.10
2022-12-23T20:20:15.836Z,4.13
2022-12-23T20:22:43.470Z,2.17
2022-12-23T20:25:12.015Z,3.27
2022-12-23T20:27:39.855Z,3.77
2022-12-23T20:30:09.232Z,4.37
2022-12-23T20:32:37.266Z,2.70
2022-12-23T20:35:05.571Z,4.77
2022-12-23T20:37:34.574Z,4.30
2022-12-23T20:40:03.002Z,3.77
2022-12-23T20:42:31.527Z,3.93
2022-12-23T20:44:59.327Z,4.40
2022-12-23T20:47:26.891Z,4.30
2022-12-23T20:49:54.528Z,4.53
2022-12-23T20:52:23.029Z,6.17
2022-12-23T20:54:52.180Z,3.73
2022-12-23T20:57:20.480Z,2.87
2022-12-23T20:59:48.447Z,2.90
2022-12-23T21:02:17.076Z,4.40
2022-12-23T21:04:44.987Z,3.37
2022-12-23T21:07:13.038Z,3.63
2022-12-23T21:09:40.685Z,3.30
2022-12-23T21:12:10.121Z,2.97
2022-12-23T21:14:37.916Z,4.27
2022-12-23T21:17:05.787Z,5.07
2022-12-23T21:19:35.191Z,3.97
2022-12-23T21:22:03.219Z,3.57
2022-12-23T21:24:31.011Z,3.57
2022-12-23T21:26:58.711Z,3.50
2022-12-23T21:29:28.366Z,4.00
2022-12-23T21:31:56.120Z,3.00
2022-12-23T21:34:24.796Z,4.10
2022-12-23T21:36:52.516Z,3.00
2022-12-23T21:39:20.338Z,4.10
2022-12-23T21:41:50.928Z,3.67
2022-12-23T21:44:18.611Z,4.97
2022-12-23T21:46:50.635Z,4.70
2022-12-23T21:49:18.847Z,4.80
2022-12-23T21:51:46.534Z,4.70
2022-12-23T21:54:14.208Z,5.83
2022-12-23T21:56:45.531Z,4.10
2022-12-23T21:59:15.070Z,8.10
2022-12-23T22:01:44.810Z,9.50
2022-12-23T22:04:14.356Z,5.23
2022-12-23T22:06:44.519Z,7.33
2022-12-23T22:09:15.283Z,7.20
2022-12-23T22:11:44.063Z,5.37
2022-12-23T22:14:15.781Z,7.03
2022-12-23T22:16:44.955Z,6.70
2022-12-23T22:19:13.999Z,4.50
2022-12-23T22:21:42.977Z,8.73
2022-12-23T22:24:11.800Z,4.57
2022-12-23T22:26:40.975Z,7.30
2022-12-23T22:29:08.762Z,3.73
2022-12-23T22:31:40.095Z,2.03
2022-12-23T22:34:09.788Z,2.20
2022-12-23T22:36:39.219Z,5.00
2022-12-23T22:39:07.946Z,6.60
2022-12-23T22:41:36.162Z,5.53
2022-12-23T22:44:04.287Z,8.30
2022-12-23T22:46:32.166Z,10.20
2022-12-23T22:49:00.312Z,15.33
2022-12-23T22:51:30.638Z,14.80
2022-12-23T22:54:00.103Z,14.43
2022-12-23T22:56:28.524Z,11.93
2022-12-23T22:58:56.435Z,5.53
2022-12-23T23:01:25.866Z,4.83
2022-12-23T23:03:57.333Z,6.00
2022-12-23T23:06:26.201Z,4.20
2022-12-23T23:08:54.526Z,4.60
2022-12-23T23:11:24.753Z,7.00
2022-12-23T23:13:53.038Z,5.10
2022-12-23T23:16:21.041Z,3.00
2022-12-23T23:18:49.235Z,2.60
2022-12-23T23:21:16.900Z,4.67
2022-12-23T23:23:45.178Z,3.53
2022-12-23T23:26:13.685Z,3.00
2022-12-23T23:28:44.396Z,2.20
2022-12-23T23:34:01.124Z,2.47
2022-12-23T23:36:29.145Z,1.37
2022-12-23T23:38:57.283Z,3.30
2022-12-23T23:41:24.917Z,3.33
2022-12-23T23:43:54.235Z,2.43
2022-12-23T23:46:22.210Z,1.93
2022-12-23T23:48:49.825Z,3.47
2022-12-23T23:51:17.985Z,4.17
2022-12-23T23:53:45.563Z,3.50
2022-12-23T23:56:13.937Z,2.30
2022-12-23T23:58:41.581Z,2.73
